Greenock, United Kingdom
Current Conditions -  °F | °C
As of 1:20 AM on Wednesday 26 Nov 2014 (Local Time) from EGPF Reporting Station
Haze Haze  
Wind Chill: 40°   Ceiling: Unl
Heat Index: 43°   Visibility: 2.7mi
Dew Point: 41°   Wind: 5mph
Humidity: 93%   Direction: 80°E
Pressure: 30.09"   Gusts: NA
Location:  55.95°N, 4.76°W
Report Text: EGPF 260120Z AUTO 08004KT 4400 BR FEW006 SCT020 06/05 Q1019
Loading
Personal Weather Stations






























Interactive Weather Map New forecast layout! Learn more

10-Day Weather Forecast

Advertisements
Track Severe Weather on mobile